Time;durP1;ratioP1;P1;durP2;ratioP2;P2;SDS_P1;SDS_P2;PMS_P1;PMS_P2;Temp;Humidity;BMP_temperature;BMP_pressure;BME280_temperature;BME280_humidity;BME280_pressure;Samples;Min_cycle;Max_cycle;Signal;HPM_P1;HPM_P2
2020/12/15 00:01:27;;;;;;;6.43;5.05;;;;;;;8.00;73.68;99745.31;5036380;28;20025;-77
2020/12/15 00:03:52;;;;;;;7.93;5.97;;;;;;;7.31;74.12;99660.31;5017411;28;20113;-78
2020/12/15 00:06:18;;;;;;;6.65;4.90;;;;;;;7.95;73.88;99743.16;5036325;28;20061;-77
2020/12/15 00:08:44;;;;;;;5.65;4.45;;;;;;;7.79;73.99;99729.94;5036154;28;20104;-77
2020/12/15 00:11:15;;;;;;;7.32;5.28;;;;;;;7.98;73.56;99756.00;5036042;28;20037;-76
2020/12/15 00:13:43;;;;;;;4.38;3.80;;;;;;;7.93;73.89;99755.63;5015576;28;20436;-77
2020/12/15 00:16:08;;;;;;;6.88;5.07;;;;;;;7.68;73.72;99714.41;5036129;28;20037;-77
2020/12/15 00:18:33;;;;;;;6.47;5.10;;;;;;;7.56;73.44;99687.59;5035986;28;20030;-77
2020/12/15 00:20:59;;;;;;;8.15;5.82;;;;;;;7.97;73.68;99765.69;5036152;28;20029;-78
2020/12/15 00:23:24;;;;;;;5.57;4.80;;;;;;;8.03;73.42;99780.00;5015146;28;20054;-77
2020/12/15 00:25:49;;;;;;;9.00;6.28;;;;;;;7.44;73.70;99679.13;5033832;28;20030;-77
2020/12/15 00:28:15;;;;;;;8.25;6.45;;;;;;;7.94;73.20;99754.66;5035895;28;20039;-78
2020/12/15 00:30:40;;;;;;;7.05;5.57;;;;;;;8.04;73.62;99768.50;5015187;28;20026;-78
2020/12/15 00:33:06;;;;;;;7.30;5.53;;;;;;;7.68;73.74;99715.25;5014917;28;20026;-77
2020/12/15 00:35:31;;;;;;;7.10;5.30;;;;;;;7.70;73.63;99710.66;5031358;28;20037;-78
2020/12/15 00:37:57;;;;;;;7.60;5.28;;;;;;;7.75;72.91;99732.03;5035726;28;20467;-78
2020/12/15 00:40:22;;;;;;;6.80;5.35;;;;;;;7.62;73.33;99703.56;5035617;28;20482;-78
2020/12/15 00:42:48;;;;;;;6.88;5.68;;;;;;;7.34;73.03;99646.88;5015881;28;20040;-82
2020/12/15 00:45:13;;;;;;;7.30;5.93;;;;;;;8.04;72.75;99768.50;5014659;28;20026;-77
2020/12/15 00:47:38;;;;;;;6.45;5.38;;;;;;;8.13;72.34;99766.75;5032214;28;20104;-77
2020/12/15 00:50:06;;;;;;;9.35;5.75;;;;;;;8.02;72.31;99749.44;5018036;28;20420;-77
2020/12/15 00:52:32;;;;;;;9.30;6.45;;;;;;;8.10;72.27;99749.47;5014718;28;20441;-79
2020/12/15 00:54:57;;;;;;;8.13;6.25;;;;;;;8.00;72.83;99730.38;5034457;28;20142;-77
2020/12/15 00:57:22;;;;;;;12.73;9.20;;;;;;;7.61;72.07;99675.63;5035137;28;20079;-78
2020/12/15 00:59:48;;;;;;;8.80;6.65;;;;;;;8.17;72.11;99745.25;5015661;28;20030;-79
2020/12/15 01:02:13;;;;;;;5.97;5.25;;;;;;;7.98;71.74;99722.63;5035242;28;20063;-80
2020/12/15 01:04:38;;;;;;;9.15;7.32;;;;;;;7.96;72.30;99703.56;5014542;28;20026;-80
2020/12/15 01:07:04;;;;;;;10.50;7.82;;;;;;;8.23;72.00;99751.69;5017760;28;20436;-79
2020/12/15 01:09:29;;;;;;;7.43;6.15;;;;;;;7.67;71.62;99676.81;5035098;28;20037;-79
2020/12/15 01:11:56;;;;;;;8.95;6.57;;;;;;;8.14;71.65;99742.91;5016334;28;20030;-77
2020/12/15 01:14:22;;;;;;;8.63;6.13;;;;;;;7.89;72.11;99714.88;5034956;28;20021;-77
2020/12/15 01:16:47;;;;;;;8.10;5.13;;;;;;;7.23;72.21;99611.19;5035062;28;20044;-77
2020/12/15 01:19:12;;;;;;;7.35;5.38;;;;;;;7.49;71.52;99665.53;5014074;28;20030;-79
2020/12/15 01:21:38;;;;;;;6.57;5.03;;;;;;;7.17;71.97;99643.31;5031514;28;20033;-77
2020/12/15 01:24:03;;;;;;;7.28;5.88;;;;;;;7.76;72.29;99733.69;5034937;28;20064;-78
2020/12/15 01:26:28;;;;;;;6.57;5.20;;;;;;;7.87;72.21;99735.22;5034749;28;20037;-76
2020/12/15 01:28:54;;;;;;;7.85;5.22;;;;;;;7.87;71.80;99740.47;5015915;28;20124;-77
2020/12/15 01:31:23;;;;;;;8.15;5.47;;;;;;;7.90;71.83;99745.44;5013343;28;20095;-79
2020/12/15 01:33:49;;;;;;;7.65;5.75;;;;;;;7.89;72.10;99743.78;5032649;28;20105;-77
2020/12/15 01:36:14;;;;;;;7.35;5.20;;;;;;;7.93;72.15;99751.19;5034716;28;20419;-76
2020/12/15 01:38:43;;;;;;;8.63;5.72;;;;;;;7.47;71.36;99684.06;5013966;28;20116;-78
2020/12/15 01:41:08;;;;;;;8.15;5.53;;;;;;;7.87;71.81;99749.19;5026950;28;20022;-77
2020/12/15 01:43:34;;;;;;;6.93;5.47;;;;;;;7.60;72.04;99705.50;5034740;28;20039;-77
2020/12/15 01:46:00;;;;;;;6.80;5.50;;;;;;;7.81;71.59;99749.81;5034679;28;20072;-76
2020/12/15 01:48:25;;;;;;;6.18;5.07;;;;;;;7.97;71.13;99776.19;5034534;28;20028;-76
2020/12/15 01:50:51;;;;;;;7.72;5.47;;;;;;;7.94;70.75;99746.75;5015531;28;20025;-77
2020/12/15 01:53:16;;;;;;;8.82;5.47;;;;;;;8.04;70.80;99763.25;5034525;28;20033;-76
2020/12/15 01:55:44;;;;;;;7.53;5.60;;;;;;;7.99;70.98;99757.63;5034624;28;20021;-77
2020/12/15 01:58:09;;;;;;;8.00;5.80;;;;;;;7.89;70.82;99739.34;5034439;28;20063;-77
2020/12/15 02:00:35;;;;;;;7.30;5.72;;;;;;;7.70;71.02;99720.34;5034456;28;20080;-77
2020/12/15 02:03:00;;;;;;;8.00;5.80;;;;;;;7.85;71.19;99743.28;5034511;28;20025;-77
2020/12/15 02:05:25;;;;;;;8.07;6.30;;;;;;;8.02;71.32;99786.25;5013551;28;20041;-77
2020/12/15 02:07:51;;;;;;;8.77;6.55;;;;;;;8.03;70.91;99772.13;5032433;28;20056;-76
2020/12/15 02:10:17;;;;;;;8.18;5.63;;;;;;;8.03;71.23;99758.97;5034340;28;20052;-76
2020/12/15 02:12:43;;;;;;;8.48;6.80;;;;;;;8.08;71.11;99766.41;5013896;28;20022;-77
2020/12/15 02:15:08;;;;;;;6.05;5.30;;;;;;;7.86;71.10;99729.16;5034241;28;20021;-76
2020/12/15 02:17:34;;;;;;;7.90;5.10;;;;;;;8.07;70.86;99767.38;5034374;28;20510;-76
2020/12/15 02:20:10;;;;;;;5.68;5.07;;;;;;;8.03;71.10;99773.94;5034305;28;20033;-77
2020/12/15 02:22:36;;;;;;;7.15;5.53;;;;;;;7.78;71.19;99728.28;5034475;28;20068;-76
2020/12/15 02:25:06;;;;;;;7.45;5.70;;;;;;;8.00;71.14;99766.34;5034406;28;20056;-77
2020/12/15 02:27:31;;;;;;;7.25;5.75;;;;;;;8.01;71.01;99773.25;5034340;28;20134;-76
2020/12/15 02:29:56;;;;;;;6.60;5.53;;;;;;;8.00;70.68;99776.88;5015710;28;20439;-77
2020/12/15 02:32:22;;;;;;;7.43;5.93;;;;;;;7.59;70.48;99701.22;5013196;28;20092;-76
2020/12/15 02:34:47;;;;;;;6.88;5.40;;;;;;;7.83;71.24;99744.41;5031797;28;20034;-76
2020/12/15 02:37:15;;;;;;;7.43;5.30;;;;;;;7.99;70.28;99776.03;5034064;28;20108;-76
2020/12/15 02:39:41;;;;;;;8.10;5.97;;;;;;;7.98;71.12;99769.97;5034149;28;20037;-76
2020/12/15 02:42:06;;;;;;;6.40;5.47;;;;;;;7.82;70.43;99753.28;5034837;28;20025;-77
2020/12/15 02:44:32;;;;;;;7.30;5.55;;;;;;;7.40;71.16;99690.06;5037867;28;20029;-77
2020/12/15 02:46:57;;;;;;;7.65;5.57;;;;;;;7.87;70.72;99761.50;5037816;28;20331;-76
2020/12/15 02:49:22;;;;;;;7.45;5.78;;;;;;;8.07;71.02;99783.16;5016919;28;20099;-76
2020/12/15 02:51:49;;;;;;;7.15;5.40;;;;;;;8.04;70.65;99781.66;5035405;28;20030;-77
2020/12/15 02:54:16;;;;;;;8.02;5.40;;;;;;;8.12;70.58;99786.97;5037609;28;20470;-76
2020/12/15 02:56:41;;;;;;;6.95;5.75;;;;;;;7.74;70.59;99722.50;5037693;28;20025;-77
2020/12/15 02:59:07;;;;;;;7.03;5.93;;;;;;;7.98;70.77;99767.34;5037524;28;20021;-76
2020/12/15 03:01:40;;;;;;;8.48;5.32;;;;;;;7.38;70.63;99684.97;5016814;28;20049;-76
2020/12/15 03:04:07;;;;;;;6.90;5.63;;;;;;;8.06;70.52;99790.22;5029560;28;20033;-76
2020/12/15 03:06:33;;;;;;;6.78;5.82;;;;;;;7.85;70.35;99753.78;5037590;28;20062;-76
2020/12/15 03:08:58;;;;;;;7.47;5.75;;;;;;;7.44;70.57;99687.00;5037261;28;20049;-76
2020/12/15 03:11:24;;;;;;;8.85;6.55;;;;;;;7.94;70.50;99778.31;5037228;28;20407;-77
2020/12/15 03:13:50;;;;;;;6.38;5.40;;;;;;;8.01;70.69;99808.25;5037319;28;20033;-76
2020/12/15 03:16:15;;;;;;;10.38;6.30;;;;;;;8.02;70.32;99802.03;5016394;28;20026;-76
2020/12/15 03:18:40;;;;;;;7.32;5.97;;;;;;;7.28;70.64;99684.25;5034223;28;20021;-76
2020/12/15 03:21:08;;;;;;;7.03;5.90;;;;;;;7.99;70.04;99804.97;5016469;28;20017;-76
2020/12/15 03:23:33;;;;;;;8.73;5.78;;;;;;;7.83;70.45;99771.50;5016395;28;20037;-76
2020/12/15 03:25:59;;;;;;;7.65;5.97;;;;;;;8.02;70.13;99806.47;5019021;28;20349;-76
2020/12/15 03:28:24;;;;;;;7.90;6.25;;;;;;;8.05;70.05;99806.97;5037057;28;20025;-76
2020/12/15 03:30:50;;;;;;;7.30;5.38;;;;;;;8.01;70.50;99816.16;5036850;28;20039;-76
2020/12/15 03:33:16;;;;;;;6.93;5.82;;;;;;;7.74;70.31;99788.22;5036904;28;20021;-75
2020/12/15 03:35:42;;;;;;;7.75;5.78;;;;;;;7.93;70.15;99806.41;5036982;28;20033;-76
2020/12/15 03:38:07;;;;;;;7.65;6.22;;;;;;;7.88;70.49;99821.81;5036926;28;20474;-76
2020/12/15 03:40:33;;;;;;;8.43;6.05;;;;;;;7.96;70.99;99826.31;5016009;28;20495;-76
2020/12/15 03:42:59;;;;;;;10.18;6.38;;;;;;;7.87;70.75;99820.16;5018674;28;20030;-76
2020/12/15 03:45:24;;;;;;;7.05;5.72;;;;;;;8.00;70.59;99832.91;5036633;28;20022;-75
2020/12/15 03:47:50;;;;;;;7.30;5.40;;;;;;;7.45;70.48;99762.22;5017217;28;20064;-76
2020/12/15 03:50:15;;;;;;;6.55;5.72;;;;;;;7.97;70.44;99838.47;5015687;28;20091;-75
2020/12/15 03:52:40;;;;;;;7.38;5.25;;;;;;;7.93;69.85;99830.06;5032812;28;20025;-76
2020/12/15 03:55:06;;;;;;;6.88;6.00;;;;;;;7.96;70.02;99850.81;5015787;28;20457;-76
2020/12/15 03:57:32;;;;;;;6.78;5.78;;;;;;;7.75;70.35;99815.31;5031933;28;20431;-76
2020/12/15 03:59:58;;;;;;;7.45;5.85;;;;;;;7.56;69.97;99785.63;5036467;28;20072;-76
2020/12/15 04:02:24;;;;;;;7.45;6.15;;;;;;;7.69;70.17;99821.19;5036287;28;20029;-76
2020/12/15 04:04:50;;;;;;;6.53;5.43;;;;;;;8.07;69.66;99864.66;5036363;28;20034;-76
2020/12/15 04:07:15;;;;;;;6.43;5.70;;;;;;;8.10;70.11;99874.88;5036202;28;20026;-75
2020/12/15 04:09:41;;;;;;;7.30;6.10;;;;;;;7.62;69.64;99792.06;5036269;28;20037;-76
2020/12/15 04:12:07;;;;;;;7.93;5.82;;;;;;;8.05;70.24;99870.09;5015365;28;20030;-76
2020/12/15 04:14:32;;;;;;;7.50;5.75;;;;;;;7.92;69.97;99833.69;5031789;28;20022;-75
2020/12/15 04:16:58;;;;;;;7.07;5.68;;;;;;;8.00;69.67;99853.94;5036177;28;20029;-75
2020/12/15 04:19:23;;;;;;;7.78;6.03;;;;;;;8.10;69.63;99867.81;5036001;28;20029;-75
2020/12/15 04:21:48;;;;;;;9.40;6.63;;;;;;;8.13;69.54;99888.56;5036277;28;20037;-76
2020/12/15 04:24:14;;;;;;;8.50;6.88;;;;;;;8.16;70.33;99888.25;5015113;28;20036;-77
2020/12/15 04:26:39;;;;;;;8.43;6.25;;;;;;;7.90;70.16;99840.06;5032767;28;20041;-76
2020/12/15 04:29:05;;;;;;;7.13;5.82;;;;;;;8.25;70.01;99891.78;5036084;28;20032;-76
2020/12/15 04:31:30;;;;;;;7.00;6.30;;;;;;;7.95;69.85;99864.09;5035736;28;20027;-75
2020/12/15 04:33:56;;;;;;;7.88;6.25;;;;;;;8.19;69.30;99903.75;5035726;28;20436;-76
2020/12/15 04:36:21;;;;;;;7.88;6.78;;;;;;;8.17;70.17;99910.09;5035699;28;20025;-77
2020/12/15 04:38:47;;;;;;;8.63;5.80;;;;;;;8.10;70.13;99902.00;5035966;28;20087;-77
2020/12/15 04:41:12;;;;;;;8.00;6.45;;;;;;;8.03;70.11;99872.03;5035840;28;20033;-76
2020/12/15 04:43:40;;;;;;;8.60;6.95;;;;;;;8.24;69.63;99911.19;5035630;28;20033;-75
2020/12/15 04:46:07;;;;;;;8.25;6.70;;;;;;;7.94;69.98;99871.16;5027662;28;20162;-76
2020/12/15 04:48:40;;;;;;;9.50;7.65;;;;;;;8.27;70.32;99916.94;5014605;28;20033;-77
2020/12/15 04:51:08;;;;;;;8.63;7.25;;;;;;;7.97;70.06;99884.00;5027505;28;20032;-76
2020/12/15 04:53:35;;;;;;;10.45;8.10;;;;;;;7.83;70.10;99857.44;5035520;28;20032;-75
2020/12/15 04:56:14;;;;;;;10.20;7.60;;;;;;;7.97;69.73;99883.16;5017530;28;20026;-76
2020/12/15 04:58:44;;;;;;;9.95;7.53;;;;;;;7.89;69.79;99867.34;5035423;28;20060;-76
2020/12/15 05:01:10;;;;;;;8.30;6.60;;;;;;;8.11;69.98;99901.03;5035239;28;20035;-76
2020/12/15 05:03:38;;;;;;;9.10;7.53;;;;;;;8.21;69.88;99917.56;5035410;28;20435;-76
2020/12/15 05:06:05;;;;;;;9.07;7.45;;;;;;;7.70;69.80;99843.88;5034466;28;20021;-76
2020/12/15 05:08:37;;;;;;;8.07;6.72;;;;;;;8.31;70.23;99935.88;5034968;28;20532;-75
2020/12/15 05:11:02;;;;;;;9.50;7.03;;;;;;;8.16;69.72;99918.97;5035090;28;20037;-76
2020/12/15 05:13:28;;;;;;;9.02;6.65;;;;;;;7.88;70.10;99879.66;5035015;28;20121;-76
2020/12/15 05:15:57;;;;;;;8.75;6.93;;;;;;;7.82;70.46;99863.66;5016017;28;20025;-76
2020/12/15 05:18:22;;;;;;;7.63;6.57;;;;;;;8.06;69.67;99900.66;5034954;28;20064;-76
2020/12/15 05:20:47;;;;;;;9.00;6.97;;;;;;;8.31;69.72;99942.94;5034979;28;20065;-77
2020/12/15 05:23:19;;;;;;;10.15;7.40;;;;;;;8.00;69.46;99889.94;5034823;28;20036;-76
2020/12/15 05:25:44;;;;;;;11.90;6.93;;;;;;;8.26;69.47;99943.41;5035124;28;20052;-77
2020/12/15 05:28:14;;;;;;;10.40;6.85;;;;;;;8.26;69.56;99959.19;5034882;28;20037;-76
2020/12/15 05:30:41;;;;;;;10.65;8.23;;;;;;;8.32;69.82;99957.75;5034782;28;20029;-76
2020/12/15 05:33:16;;;;;;;10.25;7.95;;;;;;;8.37;70.00;99955.53;5026810;28;20397;-76
2020/12/15 05:35:42;;;;;;;13.02;7.97;;;;;;;8.41;69.56;99962.97;5034785;28;20061;-76
2020/12/15 05:38:08;;;;;;;8.82;6.60;;;;;;;7.87;69.64;99879.81;5034815;28;20079;-76
2020/12/15 05:40:34;;;;;;;10.90;7.93;;;;;;;8.43;69.69;99962.81;5013813;28;20029;-76
2020/12/15 05:43:01;;;;;;;10.52;8.30;;;;;;;8.46;69.98;99968.59;5033914;28;20033;-76
2020/12/15 05:45:28;;;;;;;8.23;6.90;;;;;;;8.42;70.00;99955.88;5034507;28;20029;-79
2020/12/15 05:48:08;;;;;;;11.02;7.90;;;;;;;8.03;69.64;99895.72;5034775;28;20044;-79
2020/12/15 05:50:35;;;;;;;12.18;9.30;;;;;;;8.52;69.67;99988.19;5013782;28;20347;-78
2020/12/15 05:53:04;;;;;;;10.55;7.72;;;;;;;8.23;69.78;99936.66;5034046;28;20068;-79
2020/12/15 05:55:30;;;;;;;13.55;9.00;;;;;;;8.56;69.40;99982.47;5034459;28;20033;-78
2020/12/15 05:57:58;;;;;;;14.73;9.40;;;;;;;8.56;69.62;99979.84;5034380;28;20063;-78
2020/12/15 06:00:28;;;;;;;14.60;10.50;;;;;;;8.12;69.69;99922.88;5013698;28;20113;-77
2020/12/15 06:03:05;;;;;;;15.02;10.27;;;;;;;8.35;69.19;99947.78;5032942;28;20112;-79
2020/12/15 06:05:35;;;;;;;12.77;9.85;;;;;;;8.54;69.46;99979.16;5034299;28;20061;-77
2020/12/15 06:08:02;;;;;;;13.20;9.80;;;;;;;8.21;69.59;99925.47;5034640;28;20406;-78
2020/12/15 06:10:29;;;;;;;14.15;9.82;;;;;;;8.32;69.27;99941.97;5034279;28;20021;-76
2020/12/15 06:12:57;;;;;;;11.85;9.25;;;;;;;8.27;69.09;99931.91;5034434;28;20398;-77
2020/12/15 06:15:23;;;;;;;11.68;8.13;;;;;;;8.67;68.90;99999.81;5013358;28;20409;-76
2020/12/15 06:17:52;;;;;;;11.05;8.48;;;;;;;8.66;69.07;100002.59;5035819;28;20108;-78
2020/12/15 06:20:20;;;;;;;13.75;9.77;;;;;;;8.68;69.23;100006.72;5038255;28;20036;-76
2020/12/15 06:22:54;;;;;;;17.65;12.35;;;;;;;8.50;68.72;99975.19;5038287;28;20120;-77
2020/12/15 06:25:31;;;;;;;19.95;14.20;;;;;;;8.08;69.19;99908.41;5038120;28;20044;-78
2020/12/15 06:28:07;;;;;;;21.50;13.73;;;;;;;8.65;69.13;100007.03;5019660;28;20025;-76
2020/12/15 06:30:34;;;;;;;22.60;14.48;;;;;;;8.65;68.86;100014.94;5038071;28;20091;-76
2020/12/15 06:33:05;;;;;;;17.27;11.35;;;;;;;8.39;68.59;99977.25;5038136;28;20029;-77
2020/12/15 06:35:32;;;;;;;15.70;11.95;;;;;;;8.55;68.77;99999.25;5037872;28;20025;-76
2020/12/15 06:37:58;;;;;;;16.30;10.60;;;;;;;8.45;68.85;99995.88;5018668;28;20347;-76
2020/12/15 06:40:24;;;;;;;13.02;9.57;;;;;;;8.46;68.47;100002.78;5034570;28;20057;-77
2020/12/15 06:42:58;;;;;;;15.55;10.63;;;;;;;8.64;68.74;100025.63;5034583;28;20451;-78
2020/12/15 06:45:24;;;;;;;12.82;9.95;;;;;;;8.42;68.48;100003.25;5036714;28;20108;-77
2020/12/15 06:48:00;;;;;;;12.75;9.02;;;;;;;8.09;68.57;99963.47;5007532;28;20117;-76
2020/12/15 06:50:26;;;;;;;13.73;9.32;;;;;;;8.54;68.72;100023.06;5017583;28;20034;-79
2020/12/15 06:52:53;;;;;;;13.18;9.75;;;;;;;8.32;68.12;99994.59;5036204;28;20052;-77
2020/12/15 06:55:29;;;;;;;11.75;8.38;;;;;;;8.73;68.32;100038.69;5036992;28;20028;-83
2020/12/15 06:58:00;;;;;;;12.88;9.82;;;;;;;7.97;68.16;99931.31;5027142;28;20017;-77
2020/12/15 07:00:33;;;;;;;15.60;11.57;;;;;;;8.89;68.13;100043.22;5034499;28;20072;-76
2020/12/15 07:02:59;;;;;;;17.95;13.30;;;;;;;8.96;67.74;100039.03;5037383;28;20332;-76
2020/12/15 07:05:28;;;;;;;19.05;13.77;;;;;;;9.03;67.71;100049.75;5037301;28;20040;-77
2020/12/15 07:07:56;;;;;;;18.15;13.60;;;;;;;8.98;67.32;100028.34;5017927;28;20164;-76
2020/12/15 07:10:23;;;;;;;21.90;14.45;;;;;;;9.13;67.62;100053.09;5046151;28;20057;-77
2020/12/15 07:12:49;;;;;;;23.58;15.90;;;;;;;9.16;67.52;100048.34;5037361;28;20025;-77
2020/12/15 07:15:16;;;;;;;26.48;17.15;;;;;;;9.17;67.40;100054.44;5054214;28;20029;-79
2020/12/15 07:17:51;;;;;;;29.60;17.85;;;;;;;9.06;67.50;100031.84;5054502;28;20029;-79
2020/12/15 07:20:18;;;;;;;35.33;21.70;;;;;;;9.23;67.58;100065.19;5054634;28;20033;-76
2020/12/15 07:22:43;;;;;;;32.35;19.85;;;;;;;9.15;67.47;100053.78;5052556;28;20036;-77
2020/12/15 07:25:10;;;;;;;27.50;16.27;;;;;;;9.00;67.85;100029.00;5040673;28;20052;-75
2020/12/15 07:27:42;;;;;;;24.30;15.63;;;;;;;9.30;67.79;100077.72;5037529;28;20044;-78
2020/12/15 07:30:09;;;;;;;31.45;19.05;;;;;;;9.32;67.87;100076.59;5056120;28;20032;-76
2020/12/15 07:32:38;;;;;;;19.88;13.23;;;;;;;9.34;67.43;100084.34;5054258;28;20111;-77
2020/12/15 07:35:06;;;;;;;15.63;11.43;;;;;;;9.35;67.10;100088.63;5039086;28;20032;-76
2020/12/15 07:37:35;;;;;;;15.15;10.98;;;;;;;9.12;67.45;100039.13;5056895;28;20029;-78
2020/12/15 07:40:03;;;;;;;15.00;10.43;;;;;;;9.31;67.25;100084.66;5039045;28;20036;-75
2020/12/15 07:42:29;;;;;;;10.27;7.45;;;;;;;9.35;66.73;100076.28;5057636;28;20021;-75
2020/12/15 07:45:00;;;;;;;10.00;7.70;;;;;;;9.38;66.75;100075.97;5038508;28;20450;-76
2020/12/15 07:47:26;;;;;;;10.82;7.93;;;;;;;9.08;66.28;100029.03;5048447;28;20360;-77
2020/12/15 07:49:54;;;;;;;11.68;8.60;;;;;;;9.51;66.38;100097.44;5056458;28;20112;-81
2020/12/15 07:52:37;;;;;;;9.95;7.32;;;;;;;8.76;65.85;99969.91;5051791;28;20371;-77
2020/12/15 07:55:04;;;;;;;8.73;7.00;;;;;;;9.55;66.02;100096.16;5056024;28;20036;-74
2020/12/15 07:57:32;;;;;;;12.02;8.13;;;;;;;9.42;66.09;100072.03;5033660;28;20497;-77
2020/12/15 08:00:00;;;;;;;11.02;7.68;;;;;;;9.55;65.73;100096.16;5036541;28;20037;-75
2020/12/15 08:02:26;;;;;;;11.93;7.55;;;;;;;9.58;65.94;100089.72;5062373;28;20028;-77
2020/12/15 08:04:51;;;;;;;17.55;9.75;;;;;;;9.59;65.84;100093.19;5054549;28;20021;-75
2020/12/15 08:07:18;;;;;;;9.60;6.78;;;;;;;8.59;65.82;99928.69;5048524;28;20028;-76
2020/12/15 08:09:47;;;;;;;9.63;7.13;;;;;;;9.63;65.86;100092.72;5055632;28;20132;-77
2020/12/15 08:12:13;;;;;;;11.18;6.65;;;;;;;8.97;65.72;99997.72;5055753;28;20025;-78
2020/12/15 08:14:39;;;;;;;9.68;6.85;;;;;;;9.65;65.54;100108.38;5056050;28;20025;-75
2020/12/15 08:17:14;;;;;;;10.73;6.65;;;;;;;9.58;65.71;100092.38;5049356;28;20029;-76
2020/12/15 08:19:40;;;;;;;11.18;7.03;;;;;;;9.68;65.46;100098.38;5052184;28;20498;-77
2020/12/15 08:22:06;;;;;;;10.40;7.00;;;;;;;9.35;65.40;100036.75;5055888;28;20020;-79
2020/12/15 08:24:33;;;;;;;8.50;5.90;;;;;;;9.71;65.14;100097.22;5022973;28;20088;-76
2020/12/15 08:26:59;;;;;;;8.85;6.28;;;;;;;9.41;65.10;100051.94;5036840;28;20329;-76
2020/12/15 08:29:28;;;;;;;10.07;6.25;;;;;;;9.44;65.26;100063.97;5047770;28;20116;-77
2020/12/15 08:31:53;;;;;;;7.53;6.03;;;;;;;9.46;65.37;100068.09;5026743;28;20026;-76
2020/12/15 08:34:22;;;;;;;10.00;7.72;;;;;;;9.56;65.19;100070.63;5053209;28;20044;-75
2020/12/15 08:36:50;;;;;;;7.32;5.95;;;;;;;9.83;65.20;100095.94;5049754;28;20760;-81
2020/12/15 08:39:22;;;;;;;13.85;10.40;;;;;;;9.39;65.23;100024.09;5018963;28;20025;-83
2020/12/15 08:41:51;;;;;;;;;;;;;;;9.77;65.11;100104.50;5052056;28;20025;-81
2020/12/15 08:44:18;;;;;;;9.57;7.43;;;;;;;9.86;65.39;100108.81;5042541;28;19913;-78
2020/12/15 08:46:44;;;;;;;11.90;8.15;;;;;;;9.88;65.26;100098.94;5042171;28;20025;-78
2020/12/15 08:49:14;;;;;;;13.13;9.88;;;;;;;9.75;65.39;100069.56;5046754;28;20044;-81
2020/12/15 08:51:43;;;;;;;11.98;8.43;;;;;;;9.59;65.36;100045.75;5022639;28;20029;-83
2020/12/15 08:54:08;;;;;;;11.55;8.90;;;;;;;9.86;65.10;100082.44;5034366;28;20029;-83
2020/12/15 08:56:34;;;;;;;12.02;8.82;;;;;;;9.96;65.20;100084.94;5033685;28;20040;-84
2020/12/15 08:59:16;;;;;;;11.13;8.75;;;;;;;9.89;65.28;100071.56;5036379;28;20035;-78
2020/12/15 09:01:43;;;;;;;13.60;9.65;;;;;;;9.23;64.95;99946.63;5048906;28;20421;-88
2020/12/15 09:04:09;;;;;;;8.80;6.60;;;;;;;10.17;64.74;100096.72;5056860;28;20040;-88
2020/12/15 09:06:40;;;;;;;9.48;6.40;;;;;;;10.22;64.63;100100.69;5054619;28;20025;-87
2020/12/15 09:09:08;;;;;;;7.68;5.68;;;;;;;9.78;64.49;100025.22;5046622;28;20475;-88
2020/12/15 09:11:35;;;;;;;9.68;7.47;;;;;;;10.00;64.88;100063.38;5052838;28;20087;-89
2020/12/15 09:14:03;;;;;;;6.88;6.07;;;;;;;9.62;64.51;100005.88;5034948;28;20039;-85
2020/12/15 09:16:29;;;;;;;8.85;6.82;;;;;;;10.25;64.61;100101.22;5037131;28;20033;-83
2020/12/15 09:18:55;;;;;;;9.27;6.28;;;;;;;10.31;64.49;100097.09;5040540;28;20675;-76
2020/12/15 09:21:21;;;;;;;8.23;6.63;;;;;;;10.00;64.25;100044.91;5036237;28;20025;-76
2020/12/15 09:23:53;;;;;;;10.15;7.20;;;;;;;10.40;64.55;100093.47;5052023;28;20013;-79
2020/12/15 09:26:21;;;;;;;9.60;6.18;;;;;;;9.93;64.23;100008.78;5054518;28;20107;-78
2020/12/15 09:28:48;;;;;;;11.82;8.38;;;;;;;10.52;63.64;100086.91;5054384;28;20076;-88
2020/12/15 09:31:18;;;;;;;7.63;6.35;;;;;;;10.39;64.17;100055.69;5051924;28;20111;-82
2020/12/15 09:33:45;;;;;;;7.13;5.10;;;;;;;10.28;63.81;100023.53;5052014;28;20041;-87
2020/12/15 09:36:15;;;;;;;9.82;6.45;;;;;;;10.06;63.28;99990.66;5034769;28;20105;-86
2020/12/15 09:38:41;;;;;;;7.05;5.53;;;;;;;10.35;63.44;100027.16;5015612;28;20022;-82
2020/12/15 09:41:06;;;;;;;8.10;5.93;;;;;;;10.21;63.55;100004.88;5054413;28;20039;-84
2020/12/15 09:43:32;;;;;;;11.45;7.47;;;;;;;10.71;63.20;100076.03;5054487;28;20024;-77
2020/12/15 09:45:57;;;;;;;9.10;6.28;;;;;;;10.78;63.36;100073.53;5051679;28;20078;-80
2020/12/15 09:48:23;;;;;;;6.35;5.65;;;;;;;10.48;63.20;100011.66;5054739;28;20350;-84
2020/12/15 09:50:51;;;;;;;9.38;6.72;;;;;;;10.92;63.15;100072.03;5036497;28;20043;-82
2020/12/15 09:53:17;;;;;;;7.38;5.85;;;;;;;10.30;63.17;99984.59;5054755;28;20029;-81
2020/12/15 09:55:43;;;;;;;10.70;6.47;;;;;;;11.00;62.99;100066.75;5037099;28;20142;-79
2020/12/15 09:58:08;;;;;;;10.32;6.35;;;;;;;10.81;63.37;100047.63;5054174;28;20102;-84
2020/12/15 10:00:34;;;;;;;8.68;6.13;;;;;;;11.06;63.63;100061.59;5042132;28;20029;-80
2020/12/15 10:02:59;;;;;;;6.80;5.45;;;;;;;10.73;63.57;100002.72;5037091;28;20445;-82
2020/12/15 10:05:24;;;;;;;9.98;5.57;;;;;;;10.63;62.93;100002.09;5043095;28;20052;-80
2020/12/15 10:07:50;;;;;;;7.90;5.75;;;;;;;10.65;63.06;99986.91;5020856;28;20335;-81
2020/12/15 10:10:16;;;;;;;11.25;6.18;;;;;;;10.79;62.91;100007.34;5012639;28;20060;-82
2020/12/15 10:12:42;;;;;;;8.98;6.78;;;;;;;10.47;63.36;99950.13;5017352;28;20032;-76
2020/12/15 10:15:08;;;;;;;9.68;6.90;;;;;;;11.17;63.61;100052.53;5028803;28;20052;-85
2020/12/15 10:17:34;;;;;;;15.85;10.60;;;;;;;10.78;63.69;99996.94;5008453;28;20109;-81
2020/12/15 10:19:59;;;;;;;9.50;7.20;;;;;;;11.25;63.05;100052.50;5031726;28;20112;-76
2020/12/15 10:22:25;;;;;;;9.90;8.80;;;;;;;10.76;62.95;99997.13;5029382;28;20080;-82
2020/12/15 10:24:51;;;;;;;11.95;9.98;;;;;;;11.27;62.63;100055.81;5033902;28;20030;-80
2020/12/15 10:27:16;;;;;;;6.68;5.47;;;;;;;11.27;62.85;100054.97;5025937;28;20417;-76
2020/12/15 10:29:42;;;;;;;9.93;6.60;;;;;;;10.92;62.57;99998.88;5035723;28;20017;-76
2020/12/15 10:32:08;;;;;;;10.85;6.50;;;;;;;10.89;62.53;99982.56;5014926;28;20087;-77
2020/12/15 10:34:33;;;;;;;8.55;7.22;;;;;;;10.97;62.24;99995.75;5015076;28;20120;-90
2020/12/15 10:36:59;;;;;;;8.65;6.18;;;;;;;11.03;62.59;100001.16;5010354;28;20080;-88
2020/12/15 10:39:30;;;;;;;10.35;7.63;;;;;;;11.28;62.29;100031.03;5029353;28;20052;-89
2020/12/15 10:41:56;;;;;;;11.93;6.75;;;;;;;11.17;62.45;100026.09;5019234;28;20428;-85
2020/12/15 10:44:21;;;;;;;9.82;7.32;;;;;;;11.35;62.06;100052.31;5015885;28;20038;-89
2020/12/15 10:46:47;;;;;;;8.75;6.60;;;;;;;10.50;62.44;99912.00;5019137;28;20036;-90
2020/12/15 10:49:16;;;;;;;10.85;7.95;;;;;;;11.33;61.90;100062.22;5015676;28;20333;-89
2020/12/15 10:51:42;;;;;;;12.88;9.13;;;;;;;11.27;62.59;100050.53;5018348;28;20056;-85
2020/12/15 10:54:08;;;;;;;10.80;8.23;;;;;;;11.29;62.46;100056.47;5015749;28;20026;-81
2020/12/15 10:56:33;;;;;;;10.93;6.80;;;;;;;11.29;62.12;100045.88;5009994;28;20026;-85
2020/12/15 10:59:00;;;;;;;10.18;6.60;;;;;;;11.11;62.95;100014.34;5030755;28;20034;-76
2020/12/15 11:01:26;;;;;;;12.63;9.65;;;;;;;11.28;62.57;100049.53;5034057;28;20108;-84
2020/12/15 11:03:52;;;;;;;9.88;7.55;;;;;;;11.19;62.97;100025.94;5018544;28;20455;-76
2020/12/15 11:06:17;;;;;;;9.27;6.38;;;;;;;10.92;62.43;99992.78;5018256;28;20037;-85
2020/12/15 11:08:43;;;;;;;10.23;7.30;;;;;;;11.26;62.64;100033.00;5002737;28;20033;-81
2020/12/15 11:11:12;;;;;;;11.98;7.40;;;;;;;11.20;62.52;100024.94;5035386;28;20033;-84
2020/12/15 11:13:38;;;;;;;9.82;7.35;;;;;;;11.19;62.39;100028.56;5013160;28;20113;-84
2020/12/15 11:16:03;;;;;;;11.40;7.22;;;;;;;11.13;62.66;100012.38;5038890;28;20029;-82
2020/12/15 11:18:29;;;;;;;10.38;8.20;;;;;;;10.60;62.43;99922.38;5036907;28;20313;-89
2020/12/15 11:20:54;;;;;;;10.13;6.93;;;;;;;10.75;62.55;99949.75;5035912;28;20033;-88
2020/12/15 11:23:20;;;;;;;8.40;6.82;;;;;;;11.28;62.45;100031.03;5036817;28;20041;-82
2020/12/15 11:25:47;;;;;;;9.40;7.22;;;;;;;11.19;62.53;100005.63;5038147;28;20029;-88
2020/12/15 11:28:13;;;;;;;13.20;7.13;;;;;;;11.13;62.48;100008.91;5036539;28;20025;-83
2020/12/15 11:30:38;;;;;;;8.85;6.75;;;;;;;10.62;61.69;99907.19;5018863;28;20029;-82
2020/12/15 11:33:04;;;;;;;8.95;6.75;;;;;;;11.32;61.97;100026.22;5019134;28;20424;-80